createdAt,value
2022-11-09T00:00:40.961Z,9.24
2022-11-09T00:03:07.699Z,8.87
2022-11-09T00:05:34.442Z,7.39
2022-11-09T00:08:01.122Z,9.61
2022-11-09T00:10:28.218Z,10.08
2022-11-09T00:12:54.883Z,9.35
2022-11-09T00:15:21.532Z,8.98
2022-11-09T00:17:48.141Z,9.49
2022-11-09T00:20:14.837Z,9.36
2022-11-09T00:22:41.474Z,8.87
2022-11-09T00:25:08.584Z,9.19
2022-11-09T00:27:35.203Z,9.61
2022-11-09T00:30:01.889Z,9.56
2022-11-09T00:32:28.530Z,10.33
2022-11-09T00:34:55.161Z,9.24
2022-11-09T00:37:21.893Z,9.63
2022-11-09T00:39:48.544Z,7.32
2022-11-09T00:42:15.213Z,9.05
2022-11-09T00:44:41.858Z,8.11
2022-11-09T00:47:08.508Z,9.32
2022-11-09T00:49:35.107Z,9.78
2022-11-09T00:52:01.771Z,8.19
2022-11-09T00:54:28.457Z,8.10
2022-11-09T00:56:55.048Z,8.51
2022-11-09T00:59:21.681Z,9.88
2022-11-09T01:01:48.258Z,9.38
2022-11-09T01:04:14.943Z,8.35
2022-11-09T01:06:41.645Z,9.64
2022-11-09T01:09:08.351Z,8.77
2022-11-09T01:11:35.153Z,9.93
2022-11-09T01:14:02.319Z,9.22
2022-11-09T01:16:29.059Z,10.01
2022-11-09T01:18:56.101Z,9.98
2022-11-09T01:21:22.924Z,9.59
2022-11-09T01:23:49.521Z,8.85
2022-11-09T01:26:16.229Z,9.18
2022-11-09T01:28:42.954Z,8.97
2022-11-09T01:31:19.742Z,9.33
2022-11-09T01:33:46.486Z,9.72
2022-11-09T01:36:14.738Z,7.82
2022-11-09T01:38:41.465Z,8.74
2022-11-09T01:41:08.706Z,8.88
2022-11-09T01:43:35.450Z,7.54
2022-11-09T01:46:05.804Z,9.21
2022-11-09T01:48:54.057Z,9.11
2022-11-09T01:51:30.310Z,9.15
2022-11-09T01:54:18.756Z,10.12
2022-11-09T01:56:46.013Z,10.16
2022-11-09T01:59:17.983Z,8.62
2022-11-09T02:01:44.698Z,8.73
2022-11-09T02:04:13.866Z,8.23
2022-11-09T02:06:40.489Z,8.99
2022-11-09T02:09:12.616Z,10.20
2022-11-09T02:11:39.655Z,8.90
2022-11-09T02:14:06.238Z,9.56
2022-11-09T02:16:32.848Z,9.53
2022-11-09T02:19:00.945Z,9.48
2022-11-09T02:25:14.837Z,9.11
2022-11-09T02:27:42.493Z,8.78
2022-11-09T02:30:09.635Z,8.11
2022-11-09T02:32:36.355Z,8.93
2022-11-09T02:35:03.119Z,9.37
2022-11-09T02:37:46.625Z,9.05
2022-11-09T02:40:22.645Z,8.71
2022-11-09T02:42:49.290Z,8.70
2022-11-09T02:45:15.981Z,8.23
2022-11-09T02:47:42.642Z,8.98
2022-11-09T02:50:09.740Z,9.33
2022-11-09T02:52:36.346Z,9.10
2022-11-09T02:55:03.033Z,8.19
2022-11-09T02:57:29.894Z,10.13
2022-11-09T02:59:56.691Z,8.08
2022-11-09T03:02:23.429Z,8.59
2022-11-09T03:08:30.620Z,9.77
2022-11-09T03:10:59.142Z,9.42
2022-11-09T03:13:25.821Z,9.04
2022-11-09T03:15:52.458Z,8.61
2022-11-09T03:18:19.079Z,9.45
2022-11-09T03:20:45.821Z,8.32
2022-11-09T03:23:12.577Z,9.66
2022-11-09T03:25:39.226Z,8.93
2022-11-09T03:28:07.152Z,8.63
2022-11-09T03:30:33.867Z,9.57
2022-11-09T03:33:01.155Z,8.54
2022-11-09T03:35:27.894Z,7.61
2022-11-09T03:37:54.701Z,9.08
2022-11-09T03:40:21.447Z,7.70
2022-11-09T03:42:48.461Z,9.25
2022-11-09T03:45:15.776Z,9.86
2022-11-09T03:47:43.243Z,8.40
2022-11-09T03:50:10.325Z,8.38
2022-11-09T03:52:37.029Z,9.14
2022-11-09T03:55:04.409Z,8.64
2022-11-09T03:57:31.102Z,8.45
2022-11-09T03:59:57.734Z,7.04
2022-11-09T04:02:24.401Z,8.85
2022-11-09T04:04:51.078Z,8.61
2022-11-09T04:07:17.843Z,8.66
2022-11-09T04:09:44.495Z,8.79
2022-11-09T04:12:11.138Z,8.40
2022-11-09T04:14:37.874Z,8.70
2022-11-09T04:17:04.500Z,9.12
2022-11-09T04:23:18.919Z,8.67
2022-11-09T04:25:45.756Z,8.61
2022-11-09T04:28:12.779Z,8.18
2022-11-09T04:30:39.475Z,8.91
2022-11-09T04:33:06.161Z,9.80
2022-11-09T04:35:33.300Z,8.28
2022-11-09T04:38:01.381Z,8.39
2022-11-09T04:40:29.013Z,9.12
2022-11-09T04:42:55.844Z,7.94
2022-11-09T04:45:22.491Z,8.04
2022-11-09T04:47:49.167Z,8.96
2022-11-09T04:50:15.965Z,9.44
2022-11-09T04:52:42.609Z,8.29
2022-11-09T04:55:09.409Z,9.23
2022-11-09T04:57:36.016Z,8.08
2022-11-09T05:00:02.692Z,9.01
2022-11-09T05:02:29.310Z,8.80
2022-11-09T05:04:55.901Z,8.52
2022-11-09T05:07:22.598Z,8.80
2022-11-09T05:09:49.273Z,8.73
2022-11-09T05:12:15.929Z,9.07
2022-11-09T05:14:42.588Z,7.72
2022-11-09T05:17:09.260Z,9.06
2022-11-09T05:19:35.896Z,9.55
2022-11-09T05:22:22.518Z,9.79
2022-11-09T05:24:51.885Z,9.03
2022-11-09T05:27:18.589Z,9.37
2022-11-09T05:29:45.293Z,8.59
2022-11-09T05:40:23.567Z,9.08
2022-11-09T05:42:50.260Z,9.59
2022-11-09T05:48:04.972Z,8.62
2022-11-09T05:50:31.866Z,9.70
2022-11-09T05:53:00.393Z,9.57
2022-11-09T05:55:27.175Z,8.15
2022-11-09T05:57:54.076Z,8.56
2022-11-09T06:00:21.082Z,9.07
2022-11-09T06:02:47.810Z,8.92
2022-11-09T06:05:14.518Z,7.96
2022-11-09T06:07:41.223Z,7.90
2022-11-09T06:10:08.605Z,7.56
2022-11-09T06:12:35.327Z,9.21
2022-11-09T06:15:02.029Z,9.12
2022-11-09T06:17:28.722Z,8.61
2022-11-09T06:19:55.383Z,7.91
2022-11-09T06:22:21.987Z,7.57
2022-11-09T06:24:48.638Z,8.86
2022-11-09T06:27:39.167Z,9.91
2022-11-09T06:30:06.502Z,9.45
2022-11-09T06:32:33.300Z,9.17
2022-11-09T06:34:59.900Z,8.40
2022-11-09T06:37:26.495Z,9.27
2022-11-09T06:39:53.110Z,9.18
2022-11-09T06:42:19.866Z,7.26
2022-11-09T06:44:46.493Z,9.29
2022-11-09T06:47:13.112Z,9.25
2022-11-09T06:49:39.664Z,8.12
2022-11-09T06:52:06.255Z,9.15
2022-11-09T06:54:33.806Z,8.51
2022-11-09T06:57:00.966Z,10.07
2022-11-09T06:59:27.806Z,9.16
2022-11-09T07:01:57.685Z,9.20
2022-11-09T07:04:27.788Z,8.35
2022-11-09T07:06:54.394Z,9.61
2022-11-09T07:09:21.050Z,9.66
2022-11-09T07:11:49.215Z,9.70
2022-11-09T07:14:15.783Z,9.64
2022-11-09T07:16:42.354Z,10.07
2022-11-09T07:19:09.202Z,9.64
2022-11-09T07:21:35.985Z,9.71
2022-11-09T07:24:02.549Z,9.83
2022-11-09T07:26:29.587Z,8.90
2022-11-09T07:28:56.392Z,10.00
2022-11-09T07:31:22.989Z,10.99
2022-11-09T07:33:50.153Z,10.52
2022-11-09T07:36:21.072Z,10.19
2022-11-09T07:38:48.086Z,11.02
2022-11-09T07:41:14.714Z,11.82
2022-11-09T07:43:41.287Z,11.51
2022-11-09T07:46:07.921Z,10.78
2022-11-09T07:48:34.631Z,12.23
2022-11-09T07:51:02.187Z,11.69
2022-11-09T07:53:28.808Z,12.77
2022-11-09T07:56:01.649Z,13.17
2022-11-09T07:58:28.417Z,12.71
2022-11-09T08:00:55.138Z,12.68
2022-11-09T08:03:22.436Z,12.73
2022-11-09T08:05:49.588Z,13.07
2022-11-09T08:08:16.744Z,12.17
2022-11-09T08:10:43.924Z,12.46
2022-11-09T08:13:12.203Z,13.06
2022-11-09T08:15:39.054Z,13.12
2022-11-09T08:18:07.849Z,13.56
2022-11-09T08:20:34.646Z,13.26
2022-11-09T08:23:04.593Z,13.02
2022-11-09T08:25:33.457Z,13.60
2022-11-09T08:28:00.130Z,14.72
2022-11-09T08:30:26.959Z,14.55
2022-11-09T08:32:53.752Z,15.25
2022-11-09T08:35:22.113Z,15.95
2022-11-09T08:37:49.952Z,16.12
2022-11-09T08:40:19.944Z,16.24
2022-11-09T08:42:46.655Z,15.05
2022-11-09T08:45:13.446Z,15.98
2022-11-09T08:47:40.274Z,16.53
2022-11-09T08:50:07.526Z,16.42
2022-11-09T08:52:34.199Z,16.12
2022-11-09T08:55:00.903Z,15.74
2022-11-09T08:57:27.633Z,15.11
2022-11-09T08:59:54.280Z,14.10
2022-11-09T09:02:21.295Z,15.62
2022-11-09T09:04:47.958Z,14.08
2022-11-09T09:07:14.620Z,13.73
2022-11-09T09:09:41.324Z,14.13
2022-11-09T09:12:08.750Z,13.73
2022-11-09T09:14:35.467Z,13.96
2022-11-09T09:17:02.123Z,14.14
2022-11-09T09:19:28.815Z,13.58
2022-11-09T09:21:55.516Z,13.16
2022-11-09T09:24:22.188Z,13.01
2022-11-09T09:26:50.222Z,12.05
2022-11-09T09:29:17.132Z,13.88
2022-11-09T09:31:43.796Z,12.81
2022-11-09T09:34:11.966Z,13.05
2022-11-09T09:36:42.069Z,12.19
2022-11-09T09:39:11.489Z,13.08
2022-11-09T09:41:45.488Z,12.22
2022-11-09T09:44:30.452Z,13.65
2022-11-09T09:47:13.430Z,13.55
2022-11-09T09:50:01.480Z,12.54
2022-11-09T12:34:17.701Z,12.24
2022-11-09T12:37:19.368Z,11.41
2022-11-09T12:39:56.606Z,11.02
2022-11-09T12:42:39.680Z,11.83
2022-11-09T12:45:34.665Z,12.26
2022-11-09T12:48:38.099Z,12.06
2022-11-09T12:51:07.258Z,11.84
2022-11-09T12:53:36.857Z,11.69
2022-11-09T12:56:47.365Z,11.54
2022-11-09T12:59:29.347Z,12.32
2022-11-09T13:01:57.619Z,11.80
2022-11-09T13:04:24.692Z,10.91
2022-11-09T13:07:03.699Z,12.10
2022-11-09T13:09:44.055Z,10.83
2022-11-09T13:12:19.422Z,10.71
2022-11-09T13:14:46.159Z,10.90
2022-11-09T13:17:24.813Z,12.13
2022-11-09T13:19:54.497Z,11.10
2022-11-09T13:22:21.063Z,12.17
2022-11-09T13:24:59.988Z,12.11
2022-11-09T13:27:45.769Z,12.13
2022-11-09T13:30:33.339Z,12.09
2022-11-09T13:33:06.057Z,12.01
2022-11-09T13:35:41.870Z,11.99
2022-11-09T13:38:17.564Z,11.99
2022-11-09T13:40:45.100Z,11.84
2022-11-09T13:43:11.620Z,11.96
2022-11-09T13:45:54.656Z,11.94
2022-11-09T13:48:36.693Z,10.90
2022-11-09T13:51:05.165Z,11.05
2022-11-09T13:53:37.887Z,11.82
2022-11-09T13:56:27.005Z,11.81
2022-11-09T13:58:55.578Z,11.79
2022-11-09T14:01:30.463Z,11.75
2022-11-09T14:03:58.722Z,10.74
2022-11-09T14:06:25.470Z,10.81
2022-11-09T14:08:52.183Z,10.93
2022-11-09T14:11:59.574Z,11.70
2022-11-09T14:14:38.403Z,11.70
2022-11-09T14:17:20.907Z,10.91
2022-11-09T14:20:19.708Z,11.22
2022-11-09T14:22:46.351Z,10.15
2022-11-09T14:25:17.528Z,10.68
2022-11-09T14:27:57.399Z,11.13
2022-11-09T14:30:31.061Z,10.28
2022-11-09T14:32:58.279Z,11.15
2022-11-09T14:35:35.501Z,10.92
2022-11-09T14:38:09.850Z,10.45
2022-11-09T14:40:36.439Z,10.51
2022-11-09T14:43:23.295Z,10.79
2022-11-09T14:45:50.819Z,11.11
2022-11-09T14:48:18.600Z,11.03
2022-11-09T14:50:45.485Z,10.76
2022-11-09T14:53:26.521Z,10.53
2022-11-09T14:55:54.470Z,10.63
2022-11-09T14:58:21.478Z,10.70
2022-11-09T15:01:36.325Z,11.19
2022-11-09T15:04:13.190Z,11.10
2022-11-09T15:06:51.242Z,10.46
2022-11-09T15:09:22.713Z,9.97
2022-11-09T15:11:49.588Z,10.74
2022-11-09T15:14:23.907Z,11.02
2022-11-09T15:16:50.501Z,11.00
2022-11-09T15:19:34.292Z,9.49
2022-11-09T15:22:01.707Z,10.23
2022-11-09T15:24:28.739Z,9.42
2022-11-09T15:26:57.138Z,10.62
2022-11-09T15:29:26.809Z,10.67
2022-11-09T15:31:58.198Z,10.14
2022-11-09T15:34:27.021Z,9.78
2022-11-09T15:36:54.585Z,10.21
2022-11-09T15:39:22.172Z,10.05
2022-11-09T15:41:48.768Z,9.44
2022-11-09T15:44:15.525Z,9.95
2022-11-09T15:46:47.748Z,9.54
2022-11-09T15:49:22.781Z,9.81
2022-11-09T15:51:49.276Z,10.12
2022-11-09T15:54:16.115Z,9.71
2022-11-09T15:56:43.396Z,9.01
2022-11-09T15:59:24.134Z,8.91
2022-11-09T16:01:51.038Z,8.83
2022-11-09T16:04:17.686Z,9.18
2022-11-09T16:06:46.792Z,8.64
2022-11-09T16:09:13.925Z,8.64
2022-11-09T16:11:40.593Z,8.74
2022-11-09T16:14:07.359Z,8.29
2022-11-09T16:16:34.022Z,9.13
2022-11-09T16:19:00.695Z,8.99
2022-11-09T16:21:27.433Z,8.92
2022-11-09T16:23:58.245Z,8.76
2022-11-09T16:26:26.473Z,9.15
2022-11-09T16:28:53.340Z,9.16
2022-11-09T16:31:41.169Z,8.72
2022-11-09T16:34:06.897Z,8.67
2022-11-09T16:36:33.513Z,7.87
2022-11-09T16:39:00.126Z,9.57
2022-11-09T16:41:26.805Z,9.35
2022-11-09T16:43:56.313Z,8.28
2022-11-09T16:46:27.945Z,8.50
2022-11-09T16:48:54.986Z,8.93
2022-11-09T16:51:21.805Z,8.97
2022-11-09T16:53:48.451Z,8.20
2022-11-09T16:56:15.136Z,8.21
2022-11-09T16:58:41.803Z,8.26
2022-11-09T17:01:12.007Z,9.37
2022-11-09T17:03:39.333Z,8.52
2022-11-09T17:06:07.345Z,9.23
2022-11-09T17:08:33.970Z,8.51
2022-11-09T17:11:00.649Z,8.71
2022-11-09T17:13:27.306Z,8.61
2022-11-09T17:15:53.965Z,9.30
2022-11-09T17:18:20.887Z,8.64
2022-11-09T17:20:49.125Z,7.88
2022-11-09T17:23:19.361Z,7.32
2022-11-09T17:25:59.265Z,7.36
2022-11-09T17:28:26.081Z,8.20
2022-11-09T17:30:52.709Z,8.86
2022-11-09T17:33:19.539Z,7.52
2022-11-09T17:35:46.235Z,8.18
2022-11-09T17:38:13.012Z,8.81
2022-11-09T17:40:39.684Z,8.33
2022-11-09T17:43:06.417Z,7.56
2022-11-09T17:45:34.718Z,7.70
2022-11-09T17:48:01.832Z,7.68
2022-11-09T17:50:28.454Z,8.24
2022-11-09T17:52:55.083Z,8.37
2022-11-09T17:55:21.685Z,8.67
2022-11-09T17:57:48.737Z,8.34
2022-11-09T18:00:15.935Z,7.74
2022-11-09T18:02:42.530Z,7.54
2022-11-09T18:05:10.991Z,8.12
2022-11-09T18:07:37.645Z,7.55
2022-11-09T18:10:04.584Z,8.43
2022-11-09T18:12:31.232Z,8.14
2022-11-09T18:14:57.977Z,8.13
2022-11-09T18:17:24.598Z,8.17
2022-11-09T18:19:51.302Z,8.73
2022-11-09T18:22:18.022Z,8.97
2022-11-09T18:24:44.606Z,9.21
2022-11-09T18:27:11.294Z,8.40
2022-11-09T18:29:37.902Z,9.02
2022-11-09T18:32:04.723Z,7.66
2022-11-09T18:34:31.388Z,8.07
2022-11-09T18:36:58.022Z,8.24
2022-11-09T18:39:26.604Z,8.44
2022-11-09T18:41:55.047Z,8.38
2022-11-09T18:44:21.650Z,7.76
2022-11-09T18:46:48.367Z,7.61
2022-11-09T18:49:15.134Z,8.48
2022-11-09T18:51:42.755Z,8.78
2022-11-09T18:54:09.359Z,7.94
2022-11-09T18:56:36.055Z,7.41
2022-11-09T18:59:02.660Z,7.87
2022-11-09T19:01:29.730Z,7.81
2022-11-09T19:03:59.596Z,7.58
2022-11-09T19:06:26.900Z,7.71
2022-11-09T19:09:12.387Z,8.49
2022-11-09T19:11:39.330Z,7.97
2022-11-09T19:14:06.484Z,8.49
2022-11-09T19:16:34.249Z,8.51
2022-11-09T19:19:01.814Z,8.73
2022-11-09T19:21:40.238Z,8.67
2022-11-09T19:24:08.770Z,7.97
2022-11-09T19:26:36.466Z,6.66
2022-11-09T19:29:04.132Z,7.80
2022-11-09T19:31:30.954Z,6.50
2022-11-09T19:33:57.725Z,6.89
2022-11-09T19:36:30.697Z,8.01
2022-11-09T19:38:58.023Z,7.40
2022-11-09T19:41:25.558Z,6.97
2022-11-09T19:43:54.594Z,6.97
2022-11-09T19:46:21.853Z,6.68
2022-11-09T19:48:48.602Z,7.38
2022-11-09T19:51:15.627Z,6.74
2022-11-09T19:53:42.905Z,7.76
2022-11-09T19:56:09.723Z,7.05
2022-11-09T19:58:36.613Z,7.13
2022-11-09T20:01:12.355Z,7.72
2022-11-09T20:03:39.027Z,7.22
2022-11-09T20:06:07.286Z,6.85
2022-11-09T20:08:34.844Z,7.30
2022-11-09T20:11:06.164Z,8.14
2022-11-09T20:13:32.785Z,6.67
2022-11-09T20:16:09.203Z,8.25
2022-11-09T20:18:38.771Z,7.30
2022-11-09T20:21:08.672Z,7.09
2022-11-09T20:23:35.275Z,8.19
2022-11-09T20:26:10.772Z,7.30
2022-11-09T20:28:37.589Z,7.60
2022-11-09T20:31:30.550Z,7.87
2022-11-09T20:33:57.224Z,7.01
2022-11-09T20:36:23.866Z,7.54
2022-11-09T20:38:50.520Z,7.24
2022-11-09T20:41:20.533Z,7.15
2022-11-09T20:43:49.618Z,7.05
2022-11-09T20:46:23.109Z,7.68
2022-11-09T20:48:55.286Z,7.09
2022-11-09T20:51:23.317Z,6.52
2022-11-09T20:53:50.875Z,7.37
2022-11-09T20:56:18.194Z,6.93
2022-11-09T20:58:44.898Z,6.89
2022-11-09T21:01:16.678Z,6.98
2022-11-09T21:03:43.517Z,7.38
2022-11-09T21:06:10.852Z,8.36
2022-11-09T21:08:37.713Z,6.48
2022-11-09T21:11:05.418Z,7.70
2022-11-09T21:13:32.113Z,7.98
2022-11-09T21:16:08.675Z,8.10
2022-11-09T21:18:35.367Z,6.83
2022-11-09T21:21:12.194Z,7.57
2022-11-09T21:23:57.324Z,7.27
2022-11-09T21:26:42.605Z,7.38
2022-11-09T21:29:28.300Z,8.22
2022-11-09T21:31:55.018Z,7.30
2022-11-09T21:34:21.635Z,7.92
2022-11-09T21:36:48.403Z,7.52
2022-11-09T21:39:15.093Z,7.26
2022-11-09T21:41:42.057Z,7.53
2022-11-09T21:44:09.831Z,8.53
2022-11-09T21:46:37.391Z,8.19
2022-11-09T21:49:05.474Z,7.86
2022-11-09T21:51:34.400Z,8.01
2022-11-09T21:54:01.078Z,8.32
2022-11-09T21:56:27.767Z,7.79
2022-11-09T21:58:54.467Z,8.25
2022-11-09T22:01:21.332Z,8.37
2022-11-09T22:03:48.055Z,8.55
2022-11-09T22:06:14.981Z,8.31
2022-11-09T22:08:42.130Z,7.01
2022-11-09T22:11:13.689Z,8.07
2022-11-09T22:13:59.367Z,7.91
2022-11-09T22:16:26.642Z,7.66
2022-11-09T22:19:11.834Z,7.88
2022-11-09T22:21:38.551Z,8.55
2022-11-09T22:24:05.486Z,8.29
2022-11-09T22:26:32.422Z,8.21
2022-11-09T22:32:39.731Z,8.44
2022-11-09T22:35:06.659Z,8.31
2022-11-09T22:37:33.305Z,8.81
2022-11-09T22:40:00.005Z,8.43
2022-11-09T22:42:27.278Z,8.24
2022-11-09T22:44:53.922Z,8.32
2022-11-09T22:47:20.664Z,7.69
2022-11-09T22:49:47.332Z,8.58
2022-11-09T22:52:14.103Z,7.14
2022-11-09T22:54:40.781Z,8.16
2022-11-09T22:57:07.433Z,7.93
2022-11-09T22:59:34.093Z,8.46
2022-11-09T23:02:00.802Z,8.63
2022-11-09T23:04:27.500Z,7.80
2022-11-09T23:06:54.230Z,7.84
2022-11-09T23:09:26.193Z,7.63
2022-11-09T23:11:52.871Z,8.60
2022-11-09T23:14:39.465Z,8.52
2022-11-09T23:17:26.022Z,7.66
2022-11-09T23:19:52.664Z,7.75
2022-11-09T23:22:19.336Z,8.15
2022-11-09T23:25:04.538Z,8.17
2022-11-09T23:27:31.224Z,8.44
2022-11-09T23:29:57.827Z,7.98
2022-11-09T23:32:24.607Z,7.89
2022-11-09T23:34:51.294Z,7.70
2022-11-09T23:37:18.065Z,7.85
2022-11-09T23:39:44.740Z,7.98
2022-11-09T23:42:11.388Z,8.24
2022-11-09T23:44:38.005Z,8.19
2022-11-09T23:47:04.675Z,7.96
2022-11-09T23:49:31.298Z,7.73
2022-11-09T23:51:57.965Z,8.88
2022-11-09T23:54:24.675Z,8.34
2022-11-09T23:56:51.273Z,8.19
2022-11-09T23:59:17.879Z,8.48
